Time;durP1;ratioP1;P1;durP2;ratioP2;P2;SDS_P1;SDS_P2;PMS_P1;PMS_P2;Temp;Humidity;BMP_temperature;BMP_pressure;BME280_temperature;BME280_humidity;BME280_pressure;Samples;Min_cycle;Max_cycle;Signal;HPM_P1;HPM_P2
2022/06/25 00:02:21;;;;;;;7.73;4.10;;;;;;;18.26;62.59;100336.52;1760395;80;21767;-78
2022/06/25 00:07:32;;;;;;;8.07;4.30;;;;;;;18.21;62.75;100340.70;1771403;79;21740;-78
2022/06/25 00:09:59;;;;;;;5.87;4.30;;;;;;;18.20;62.96;100339.67;1772149;80;22093;-78
2022/06/25 00:12:31;;;;;;;5.83;4.30;;;;;;;18.18;63.02;100335.13;1759779;80;21694;-78
2022/06/25 00:15:03;;;;;;;8.03;4.20;;;;;;;18.18;63.09;100339.19;1767267;79;21689;-81
2022/06/25 00:17:30;;;;;;;5.40;3.67;;;;;;;18.15;63.19;100336.55;1781927;80;21752;-80
2022/06/25 00:19:56;;;;;;;6.57;4.00;;;;;;;18.15;63.20;100333.05;1765886;79;21102;-77
2022/06/25 00:22:23;;;;;;;6.57;3.90;;;;;;;18.14;63.19;100336.31;1778014;79;21695;-77
2022/06/25 00:24:50;;;;;;;7.20;3.90;;;;;;;18.11;63.17;100338.28;1781944;80;21790;-80
2022/06/25 00:27:16;;;;;;;7.70;4.33;;;;;;;18.08;63.11;100336.20;1761254;79;21763;-79
2022/06/25 00:29:42;;;;;;;6.37;4.03;;;;;;;18.07;63.11;100335.97;1780152;80;22980;-80
2022/06/25 00:32:09;;;;;;;6.57;3.70;;;;;;;18.05;63.04;100338.97;1760623;80;21742;-80
2022/06/25 00:34:38;;;;;;;6.87;3.87;;;;;;;18.04;62.92;100343.35;1780990;80;21783;-80
2022/06/25 00:37:08;;;;;;;6.40;4.05;;;;;;;18.01;62.84;100333.95;1768532;79;21760;-81
2022/06/25 00:39:36;;;;;;;5.70;3.60;;;;;;;18.00;63.02;100335.63;1780879;80;21067;-80
2022/06/25 00:42:09;;;;;;;5.47;4.13;;;;;;;17.98;63.07;100335.93;1781684;80;21765;-81
2022/06/25 00:44:38;;;;;;;5.10;3.50;;;;;;;17.97;62.93;100335.70;1733942;80;21694;-80
2022/06/25 00:47:19;;;;;;;5.47;3.47;;;;;;;17.97;62.68;100336.25;1760538;79;21829;-80
2022/06/25 00:49:48;;;;;;;4.33;3.50;;;;;;;17.95;62.49;100332.50;1765473;80;21761;-81
2022/06/25 00:52:20;;;;;;;6.50;3.70;;;;;;;17.95;62.24;100340.60;1781041;80;21729;-80
2022/06/25 00:55:03;;;;;;;6.07;3.70;;;;;;;17.95;62.11;100339.25;1775232;79;21724;-80
2022/06/25 00:57:32;;;;;;;4.28;3.25;;;;;;;17.96;61.83;100335.44;1776282;80;22839;-81
2022/06/25 01:00:04;;;;;;;5.63;3.23;;;;;;;17.97;61.50;100336.25;1734291;81;21624;-81
2022/06/25 01:02:33;;;;;;;;;;;;;;;18.00;61.12;100343.18;1780514;80;22281;-81
2022/06/25 01:05:05;;;;;;;8.70;3.50;;;;;;;18.03;60.75;100346.61;1781386;80;20179;-79
2022/06/25 01:07:36;;;;;;;7.87;3.53;;;;;;;18.04;60.33;100343.35;1780633;80;22221;-79
2022/06/25 01:10:08;;;;;;;4.60;3.20;;;;;;;18.11;60.16;100341.55;1777013;80;21702;-80
2022/06/25 01:12:35;;;;;;;8.30;3.57;;;;;;;18.15;59.93;100338.45;1728557;80;21712;-80
2022/06/25 01:15:08;;;;;;;6.47;3.60;;;;;;;18.18;59.67;100335.13;1781405;80;21716;-80
2022/06/25 01:17:50;;;;;;;4.60;3.27;;;;;;;18.22;59.43;100336.09;1779252;79;21731;-81
2022/06/25 01:20:23;;;;;;;6.43;3.17;;;;;;;18.24;59.27;100333.88;1774106;79;21720;-80
2022/06/25 01:22:51;;;;;;;5.53;3.13;;;;;;;18.25;59.03;100332.20;1766292;80;22262;-80
2022/06/25 01:25:22;;;;;;;5.70;3.20;;;;;;;18.29;58.87;100337.77;1774053;80;21735;-80
2022/06/25 01:27:49;;;;;;;4.93;2.97;;;;;;;18.31;58.83;100330.72;1751602;80;21837;-79
2022/06/25 01:30:17;;;;;;;5.53;3.27;;;;;;;18.31;58.83;100330.72;1782749;80;20993;-80
2022/06/25 01:32:44;;;;;;;6.73;3.50;;;;;;;18.32;58.83;100337.15;1781581;80;21754;-81
2022/06/25 01:35:17;;;;;;;4.53;3.30;;;;;;;18.33;58.84;100337.94;1781459;80;22313;-80
2022/06/25 01:37:48;;;;;;;6.40;3.20;;;;;;;18.32;58.83;100330.95;1780445;79;21726;-80
2022/06/25 01:40:14;;;;;;;4.67;3.13;;;;;;;18.29;58.75;100333.72;1766064;80;21796;-81
2022/06/25 01:43:01;;;;;;;6.80;3.87;;;;;;;18.30;58.60;100338.59;1754023;81;21707;-81
2022/06/25 01:45:33;;;;;;;4.87;3.10;;;;;;;18.29;58.47;100340.48;1739487;81;22278;-80
2022/06/25 01:48:06;;;;;;;3.90;2.80;;;;;;;18.29;58.47;100340.48;1755411;81;20999;-78
2022/06/25 01:50:34;;;;;;;6.08;3.15;;;;;;;18.30;58.34;100340.74;1746556;78;21654;-77
2022/06/25 01:53:04;;;;;;;5.85;3.37;;;;;;;18.30;58.32;100348.85;1749803;81;21199;-80
2022/06/25 01:55:36;;;;;;;6.23;3.30;;;;;;;18.31;58.26;100351.00;1754978;81;21078;-81
2022/06/25 01:58:05;;;;;;;5.03;3.00;;;;;;;18.31;58.19;100350.44;1754685;81;21688;-80
2022/06/25 02:00:35;;;;;;;4.30;3.37;;;;;;;18.33;58.17;100352.81;1747401;81;21026;-81
2022/06/25 02:03:08;;;;;;;5.03;3.60;;;;;;;18.33;58.17;100352.81;1752223;81;21050;-81
2022/06/25 02:08:22;;;;;;;5.57;3.60;;;;;;;18.40;57.86;100355.32;1753877;81;21783;-79
2022/06/25 02:10:49;;;;;;;5.20;3.07;;;;;;;18.41;57.79;100354.20;1752747;81;21043;-79
2022/06/25 02:13:16;;;;;;;5.80;3.30;;;;;;;18.43;57.69;100355.25;1755788;81;21706;-78
2022/06/25 02:15:43;;;;;;;5.73;3.70;;;;;;;18.45;57.64;100357.07;1755370;81;21679;-79
2022/06/25 02:18:13;;;;;;;6.83;3.17;;;;;;;18.43;57.59;100351.98;1756016;81;21753;-80
2022/06/25 02:20:40;;;;;;;5.87;3.50;;;;;;;18.45;58.47;100358.42;1750537;81;21696;-79
2022/06/25 02:23:07;;;;;;;5.50;3.87;;;;;;;18.45;58.47;100358.42;1720240;81;21209;-77
2022/06/25 02:25:34;;;;;;;5.73;3.47;;;;;;;18.44;58.63;100353.58;1775777;79;21719;-79
2022/06/25 02:28:02;;;;;;;5.23;3.47;;;;;;;18.41;59.13;100358.25;1779856;79;21663;-81
2022/06/25 02:30:31;;;;;;;5.10;3.53;;;;;;;18.37;59.44;100358.65;1780842;80;22241;-80
2022/06/25 02:33:04;;;;;;;7.13;3.73;;;;;;;18.29;59.51;100354.00;1780832;80;21543;-79
2022/06/25 02:35:33;;;;;;;5.55;3.60;;;;;;;18.29;59.51;100354.00;1783977;80;21094;-81
2022/06/25 02:38:00;;;;;;;4.67;3.30;;;;;;;18.30;59.81;100362.37;1742903;80;20996;-81
2022/06/25 02:40:29;;;;;;;4.73;3.47;;;;;;;18.28;59.62;100359.17;1763698;81;21554;-82
2022/06/25 02:42:55;;;;;;;5.07;3.60;;;;;;;18.28;59.62;100359.17;1762686;80;21159;-79
2022/06/25 02:45:22;;;;;;;5.70;3.47;;;;;;;18.30;59.88;100356.17;1764102;80;21055;-82
2022/06/25 02:47:50;;;;;;;5.00;3.33;;;;;;;18.31;60.02;100359.90;1762168;80;22255;-81
2022/06/25 02:50:19;;;;;;;5.17;3.50;;;;;;;18.36;60.48;100354.89;1762543;81;21722;-81
2022/06/25 02:52:45;;;;;;;4.20;3.30;;;;;;;18.36;60.48;100354.89;1764983;81;21527;-81
2022/06/25 02:55:15;;;;;;;5.63;3.30;;;;;;;18.40;59.94;100362.08;1762781;80;21695;-81
2022/06/25 03:00:30;;;;;;;4.73;3.17;;;;;;;18.41;59.70;100358.81;1734290;81;21070;-82
2022/06/25 03:02:57;;;;;;;8.27;3.10;;;;;;;18.56;59.12;100362.97;1762508;80;21765;-81
2022/06/25 03:05:24;;;;;;;4.97;3.17;;;;;;;18.66;58.84;100361.35;1729571;80;21019;-81
2022/06/25 03:07:52;;;;;;;6.10;3.37;;;;;;;18.76;58.37;100362.42;1759089;80;21207;-82
2022/06/25 03:10:19;;;;;;;5.77;2.90;;;;;;;18.95;57.81;100362.11;1761823;80;20999;-82
2022/06/25 03:12:46;;;;;;;3.63;2.73;;;;;;;18.95;57.81;100362.11;1759563;80;21459;-83
2022/06/25 03:15:17;;;;;;;4.65;2.90;;;;;;;19.05;57.47;100360.47;1757334;80;21007;-81
2022/06/25 03:17:46;;;;;;;4.67;3.13;;;;;;;19.15;56.97;100370.15;1761490;80;20952;-80
2022/06/25 03:20:21;;;;;;;5.23;3.83;;;;;;;19.25;56.81;100374.45;1697278;81;21543;-77
2022/06/25 03:22:49;;;;;;;6.07;3.43;;;;;;;19.32;56.65;100376.14;1762600;80;21027;-78
2022/06/25 03:25:16;;;;;;;4.83;3.30;;;;;;;19.38;56.68;100373.48;1760083;80;21014;-84
2022/06/25 03:27:42;;;;;;;3.93;2.67;;;;;;;19.44;56.15;100373.56;1761570;80;21018;-81
2022/06/25 03:30:11;;;;;;;4.93;2.97;;;;;;;19.50;56.22;100374.20;1760578;80;21465;-81
2022/06/25 03:32:39;;;;;;;7.67;3.10;;;;;;;19.55;55.96;100369.41;1761810;80;21048;-82
2022/06/25 03:35:24;;;;;;;4.37;2.90;;;;;;;19.59;56.07;100367.65;1753604;80;21404;-81
2022/06/25 03:37:52;;;;;;;5.47;3.00;;;;;;;19.64;55.88;100366.70;1755347;81;20988;-81
2022/06/25 03:40:19;;;;;;;5.07;2.87;;;;;;;19.70;55.67;100366.77;1758922;81;21057;-82
2022/06/25 03:42:48;;;;;;;4.30;2.93;;;;;;;19.73;55.47;100369.40;1760462;80;21201;-87
2022/06/25 03:45:20;;;;;;;4.70;2.87;;;;;;;19.76;55.19;100372.26;1756487;80;21098;-83
2022/06/25 03:47:52;;;;;;;6.23;3.27;;;;;;;19.79;55.20;100377.03;1764052;80;21044;-82
2022/06/25 03:50:22;;;;;;;5.57;3.10;;;;;;;19.84;55.24;100383.65;1759789;80;20995;-81
2022/06/25 03:52:50;;;;;;;4.23;2.83;;;;;;;19.87;55.15;100382.19;1759159;80;20983;-84
2022/06/25 03:55:18;;;;;;;6.47;2.93;;;;;;;19.93;54.95;100384.96;1764397;80;21027;-83
2022/06/25 03:57:46;;;;;;;5.03;3.13;;;;;;;20.00;55.08;100385.81;1767213;81;21779;-79
2022/06/25 04:00:32;;;;;;;5.50;3.03;;;;;;;20.06;54.81;100386.67;1762331;80;21494;-83
2022/06/25 04:03:00;;;;;;;6.17;3.27;;;;;;;20.14;54.95;100391.84;1762176;80;21272;-84
2022/06/25 04:05:31;;;;;;;5.50;2.97;;;;;;;20.21;54.79;100396.77;1730815;80;20946;-84
2022/06/25 04:08:00;;;;;;;4.43;3.37;;;;;;;20.26;54.65;100397.35;1758569;80;21011;-85
2022/06/25 04:10:29;;;;;;;5.60;3.20;;;;;;;20.33;54.85;100398.20;1760935;80;21202;-80
2022/06/25 04:12:58;;;;;;;4.70;3.03;;;;;;;20.39;54.59;100397.69;1760644;80;21615;-81
2022/06/25 04:15:27;;;;;;;4.53;2.93;;;;;;;20.44;54.03;100395.38;1762085;80;21098;-82
2022/06/25 04:17:55;;;;;;;4.63;3.20;;;;;;;20.48;54.09;100399.02;1757946;80;21106;-83
2022/06/25 04:20:22;;;;;;;3.90;3.10;;;;;;;20.57;54.24;100401.72;1761594;80;21121;-80
2022/06/25 04:22:49;;;;;;;4.63;3.13;;;;;;;20.64;54.17;100402.56;1760601;80;21204;-81
2022/06/25 04:25:17;;;;;;;4.10;3.27;;;;;;;20.74;54.11;100412.47;1760269;80;21448;-82
2022/06/25 04:30:29;;;;;;;4.60;3.10;;;;;;;20.90;52.92;100413.27;1762712;80;21069;-82
2022/06/25 04:32:56;;;;;;;5.20;3.20;;;;;;;20.95;53.14;100412.48;1763407;80;20991;-80
2022/06/25 04:35:24;;;;;;;5.10;3.03;;;;;;;21.00;52.76;100417.73;1760876;80;21103;-84
2022/06/25 04:37:52;;;;;;;4.67;2.73;;;;;;;21.05;53.19;100422.95;1761276;80;20995;-80
2022/06/25 04:40:19;;;;;;;5.70;3.33;;;;;;;21.13;52.83;100422.67;1762708;80;21117;-83
2022/06/25 04:42:49;;;;;;;3.47;2.57;;;;;;;21.21;52.50;100425.08;1760383;80;21035;-83
2022/06/25 04:45:18;;;;;;;4.80;3.37;;;;;;;21.30;52.44;100429.33;1759669;80;20983;-81
2022/06/25 04:47:49;;;;;;;;;;;;;;;21.38;51.88;100432.33;1762296;77;21010;-79
2022/06/25 04:50:22;;;;;;;4.87;3.20;;;;;;;21.44;51.93;100429.64;1759003;80;20103;-81
2022/06/25 04:52:48;;;;;;;5.30;2.90;;;;;;;21.50;51.62;100429.67;1761490;77;21102;-83
2022/06/25 04:55:19;;;;;;;5.70;3.30;;;;;;;21.58;51.80;100434.78;1762559;80;21070;-82
2022/06/25 04:57:46;;;;;;;4.80;3.30;;;;;;;21.65;51.31;100435.03;1731877;80;21074;-82
2022/06/25 05:00:19;;;;;;;4.47;2.83;;;;;;;21.71;51.24;100438.56;1704438;80;21145;-81
2022/06/25 05:02:46;;;;;;;4.70;2.90;;;;;;;21.81;51.48;100434.64;1754921;80;21054;-81
2022/06/25 05:05:17;;;;;;;5.87;3.13;;;;;;;21.91;51.09;100439.64;1763641;81;21105;-85
2022/06/25 05:07:46;;;;;;;6.70;3.20;;;;;;;22.00;50.58;100434.91;1763544;81;21031;-82
2022/06/25 05:10:13;;;;;;;5.07;3.20;;;;;;;22.09;50.42;100430.75;1762401;80;21052;-85
2022/06/25 05:15:29;;;;;;;4.13;3.33;;;;;;;22.29;50.15;100435.12;1764563;80;21410;-86
2022/06/25 05:17:57;;;;;;;4.43;3.43;;;;;;;22.40;49.80;100435.67;1767338;81;21014;-83
2022/06/25 05:20:23;;;;;;;4.23;3.53;;;;;;;22.50;49.17;100433.07;1745926;81;21039;-85
2022/06/25 05:22:52;;;;;;;5.33;3.10;;;;;;;22.58;49.07;100434.90;1734288;82;21157;-82
2022/06/25 05:25:21;;;;;;;4.20;3.20;;;;;;;22.67;48.85;100434.22;1759775;80;21525;-82
2022/06/25 05:27:49;;;;;;;6.10;3.23;;;;;;;22.76;48.76;100434.08;1763362;80;20998;-81
2022/06/25 05:30:18;;;;;;;5.50;3.30;;;;;;;22.86;48.57;100432.82;1761567;80;20979;-82
2022/06/25 05:32:47;;;;;;;4.73;3.20;;;;;;;22.93;48.00;100436.61;1762198;80;21007;-84
2022/06/25 05:35:17;;;;;;;6.67;3.23;;;;;;;22.99;47.91;100436.35;1762790;80;21045;-81
2022/06/25 05:37:43;;;;;;;5.83;3.27;;;;;;;23.05;48.22;100443.95;1761056;80;21310;-82
2022/06/25 05:40:11;;;;;;;3.70;2.70;;;;;;;23.16;47.78;100440.98;1732382;80;21164;-83
2022/06/25 05:42:39;;;;;;;4.60;2.93;;;;;;;23.29;47.31;100438.20;1764608;81;21011;-86
2022/06/25 05:45:08;;;;;;;6.20;2.93;;;;;;;23.35;46.75;100438.19;1763816;80;21098;-84
2022/06/25 05:47:36;;;;;;;5.50;3.13;;;;;;;23.40;47.13;100437.95;1760090;80;20936;-86
2022/06/25 05:50:04;;;;;;;6.10;3.10;;;;;;;23.51;47.09;100442.34;1756349;80;21607;-74
2022/06/25 05:52:31;;;;;;;4.90;3.30;;;;;;;23.63;46.85;100442.30;1762133;80;21058;-77
2022/06/25 05:54:57;;;;;;;4.73;3.00;;;;;;;23.74;46.05;100440.67;1761923;80;21018;-77
2022/06/25 05:57:23;;;;;;;6.73;3.00;;;;;;;23.82;46.05;100449.83;1761326;80;21038;-79
2022/06/25 05:59:50;;;;;;;5.50;2.90;;;;;;;23.91;45.87;100449.67;1761691;80;21024;-78
2022/06/25 06:02:16;;;;;;;4.10;2.80;;;;;;;24.01;45.58;100449.95;1760756;80;21200;-76
2022/06/25 06:04:43;;;;;;;4.17;2.70;;;;;;;24.09;45.80;100450.94;1761101;80;21123;-76
2022/06/25 06:07:10;;;;;;;4.23;2.67;;;;;;;24.17;44.91;100453.27;1762345;80;21101;-77
2022/06/25 06:09:38;;;;;;;4.17;2.53;;;;;;;24.22;44.80;100454.36;1762138;80;21126;-78
2022/06/25 06:12:05;;;;;;;3.77;2.70;;;;;;;24.25;44.79;100456.38;1762170;80;21065;-77
2022/06/25 06:14:32;;;;;;;4.57;2.87;;;;;;;24.34;45.19;100457.01;1763109;80;21746;-78
2022/06/25 06:16:59;;;;;;;3.53;2.53;;;;;;;24.45;45.34;100455.92;1759190;80;20995;-78
2022/06/25 06:19:25;;;;;;;4.07;2.80;;;;;;;24.58;45.30;100456.08;1760871;80;21621;-77
2022/06/25 06:21:52;;;;;;;3.97;2.73;;;;;;;24.69;44.67;100458.47;1762304;80;21087;-77
2022/06/25 06:24:18;;;;;;;4.60;2.80;;;;;;;24.80;44.27;100458.71;1761060;80;21034;-78
2022/06/25 06:26:45;;;;;;;4.13;2.70;;;;;;;24.86;44.05;100466.86;1763519;80;21126;-79
2022/06/25 06:29:11;;;;;;;3.60;2.63;;;;;;;24.93;43.73;100458.03;1762761;80;21023;-79
2022/06/25 06:31:37;;;;;;;3.87;2.80;;;;;;;24.93;43.62;100460.18;1761839;80;20951;-78
2022/06/25 06:34:04;;;;;;;4.03;2.80;;;;;;;24.97;43.50;100459.68;1762836;80;21018;-77
2022/06/25 06:36:31;;;;;;;4.10;2.50;;;;;;;25.02;43.63;100459.41;1761117;80;21070;-77
2022/06/25 06:38:59;;;;;;;5.33;2.70;;;;;;;25.10;42.63;100459.56;1763057;80;21164;-79
2022/06/25 06:41:27;;;;;;;4.30;2.70;;;;;;;25.11;42.98;100455.70;1761694;80;21050;-76
2022/06/25 06:43:54;;;;;;;3.80;2.80;;;;;;;25.11;42.57;100460.59;1760111;81;20976;-80
2022/06/25 06:46:20;;;;;;;6.13;2.63;;;;;;;25.10;42.21;100454.09;1761500;81;21046;-78
2022/06/25 06:48:48;;;;;;;4.83;2.60;;;;;;;25.06;42.02;100448.56;1761563;80;21019;-77
2022/06/25 06:51:14;;;;;;;3.17;2.37;;;;;;;25.09;42.93;100459.36;1762590;80;21858;-78
2022/06/25 06:53:41;;;;;;;4.40;2.60;;;;;;;25.20;42.85;100460.39;1762380;80;20983;-76
2022/06/25 06:56:09;;;;;;;3.60;2.60;;;;;;;25.35;42.62;100464.23;1759388;80;21070;-76
2022/06/25 06:58:36;;;;;;;3.13;2.40;;;;;;;25.50;42.61;100460.06;1762410;80;21094;-77
2022/06/25 07:01:03;;;;;;;4.57;2.40;;;;;;;25.68;43.46;100459.62;1712050;80;21067;-79
2022/06/25 07:03:29;;;;;;;3.33;2.47;;;;;;;25.83;41.84;100471.63;1763350;80;21306;-77
2022/06/25 07:05:56;;;;;;;4.17;2.60;;;;;;;25.93;41.40;100466.38;1759032;80;22558;-78
2022/06/25 07:08:23;;;;;;;4.40;2.57;;;;;;;26.03;41.47;100473.76;1762238;80;21117;-79
2022/06/25 07:10:50;;;;;;;3.20;2.30;;;;;;;26.14;40.37;100476.12;1762347;80;21166;-78
2022/06/25 07:13:17;;;;;;;3.50;2.50;;;;;;;26.16;40.28;100482.83;1761257;80;21012;-78
2022/06/25 07:15:43;;;;;;;3.83;2.40;;;;;;;26.10;40.26;100482.13;1761468;80;21552;-82
2022/06/25 07:18:10;;;;;;;4.33;2.47;;;;;;;25.99;40.45;100475.64;1762298;80;21019;-80
2022/06/25 07:20:37;;;;;;;4.03;2.43;;;;;;;25.96;40.39;100473.87;1763018;80;22148;-79
2022/06/25 07:23:03;;;;;;;3.80;2.30;;;;;;;25.99;39.79;100480.53;1762209;80;21080;-77
2022/06/25 07:25:30;;;;;;;4.93;2.30;;;;;;;26.08;39.39;100474.26;1762195;80;21018;-78
2022/06/25 07:27:56;;;;;;;3.90;2.70;;;;;;;26.27;39.86;100477.52;1763814;80;21188;-78
2022/06/25 07:30:25;;;;;;;4.30;2.40;;;;;;;26.52;39.24;100471.13;1761155;80;21030;-78
2022/06/25 07:32:54;;;;;;;3.73;2.40;;;;;;;26.77;39.23;100466.59;1762129;80;21062;-78
2022/06/25 07:35:20;;;;;;;4.80;2.53;;;;;;;26.99;38.53;100463.59;1763610;80;21004;-80
2022/06/25 07:37:46;;;;;;;4.60;2.30;;;;;;;27.15;38.76;100471.09;1762237;80;21085;-78
2022/06/25 07:40:13;;;;;;;3.60;2.53;;;;;;;27.29;38.36;100463.63;1759912;80;21262;-80
2022/06/25 07:42:40;;;;;;;4.03;2.30;;;;;;;27.39;37.98;100464.92;1763798;80;21011;-79
2022/06/25 07:45:08;;;;;;;4.87;2.20;;;;;;;27.45;36.64;100455.20;1764457;80;21043;-76
2022/06/25 07:47:38;;;;;;;3.80;2.40;;;;;;;27.41;36.43;100466.13;1761997;80;21030;-76
2022/06/25 07:52:43;;;;;;;4.30;2.70;;;;;;;27.15;36.79;100479.88;1705846;80;21000;-76
2022/06/25 07:55:10;;;;;;;4.00;2.20;;;;;;;27.01;37.24;100476.33;1749642;80;21054;-76
2022/06/25 07:57:37;;;;;;;3.77;2.37;;;;;;;26.97;37.48;100474.13;1751544;80;21051;-75
2022/06/25 08:00:05;;;;;;;3.97;2.47;;;;;;;26.87;37.23;100470.08;1751936;80;21070;-74
2022/06/25 08:02:33;;;;;;;3.60;2.30;;;;;;;26.69;37.28;100470.38;1749541;80;21416;-74
2022/06/25 08:05:00;;;;;;;3.27;2.13;;;;;;;26.60;37.95;100466.55;1729339;80;21645;-75
2022/06/25 08:07:26;;;;;;;5.37;2.70;;;;;;;26.59;37.75;100471.23;1751617;80;21549;-75
2022/06/25 08:09:53;;;;;;;3.31;2.43;;;;;;;26.60;38.17;100469.28;1656962;79;9999627;-75
2022/06/25 08:12:20;;;;;;;3.43;2.33;;;;;;;26.66;38.31;100466.45;1644249;79;10000184;-74
2022/06/25 08:14:47;;;;;;;3.80;2.33;;;;;;;26.71;37.40;100471.59;1770898;79;20982;-76
2022/06/25 08:17:13;;;;;;;4.50;2.00;;;;;;;26.73;37.84;100477.51;1766827;80;21082;-76
2022/06/25 08:19:40;;;;;;;4.23;2.23;;;;;;;26.82;38.81;100472.56;1750041;81;21058;-75
2022/06/25 08:22:06;;;;;;;4.87;2.33;;;;;;;26.98;37.60;100471.59;1782698;80;21036;-78
2022/06/25 08:24:33;;;;;;;3.50;2.30;;;;;;;27.05;36.43;100473.87;1749294;81;21246;-78
2022/06/25 08:26:59;;;;;;;3.63;2.20;;;;;;;27.09;37.43;100471.17;1749619;82;21098;-76
2022/06/25 08:29:26;;;;;;;4.50;2.57;;;;;;;27.18;36.82;100468.16;1781736;80;21074;-78
2022/06/25 08:31:53;;;;;;;6.83;2.30;;;;;;;27.16;36.30;100460.33;1781900;80;21530;-78
2022/06/25 08:34:20;;;;;;;3.53;2.30;;;;;;;27.23;36.48;100464.52;1780948;79;21034;-76
2022/06/25 08:36:46;;;;;;;5.07;2.30;;;;;;;27.38;36.93;100466.06;1784832;80;21746;-77
2022/06/25 08:39:13;;;;;;;3.33;2.00;;;;;;;27.57;36.35;100463.16;1782416;80;21480;-76
2022/06/25 08:41:41;;;;;;;5.70;2.27;;;;;;;27.68;35.24;100466.05;1776502;79;21553;-76
2022/06/25 08:44:09;;;;;;;4.17;2.17;;;;;;;27.60;35.34;100467.90;1781771;80;21111;-75
2022/06/25 08:46:37;;;;;;;2.93;2.30;;;;;;;27.46;35.38;100467.16;1781717;80;21001;-77
2022/06/25 08:49:03;;;;;;;5.47;2.20;;;;;;;27.23;35.49;100470.01;1770863;80;21605;-77
2022/06/25 08:51:30;;;;;;;3.63;2.20;;;;;;;27.01;36.34;100468.89;1779844;80;22100;-76
2022/06/25 08:53:58;;;;;;;4.10;2.10;;;;;;;26.97;37.25;100470.02;1773191;79;21036;-76
2022/06/25 08:56:24;;;;;;;4.37;2.27;;;;;;;27.01;36.75;100470.84;1769449;79;21623;-76
2022/06/25 08:58:53;;;;;;;4.00;2.37;;;;;;;27.08;36.76;100468.20;1781100;80;21097;-76
2022/06/25 09:01:23;;;;;;;5.50;2.33;;;;;;;27.03;37.04;100474.02;1751364;80;21881;-77
2022/06/25 09:03:51;;;;;;;4.30;2.20;;;;;;;26.91;36.52;100476.39;1783042;80;21056;-75
2022/06/25 09:06:23;;;;;;;4.47;2.53;;;;;;;26.81;36.62;100480.55;1781149;80;21740;-75
2022/06/25 09:09:13;;;;;;;3.87;2.47;;;;;;;26.76;36.53;100473.25;1741438;80;21070;-74
2022/06/25 09:12:05;;;;;;;4.40;2.47;;;;;;;26.77;36.76;100471.50;1756418;81;21110;-74
2022/06/25 09:14:33;;;;;;;3.73;2.37;;;;;;;26.79;36.25;100469.19;1752647;81;21057;-75
2022/06/25 09:17:04;;;;;;;4.27;2.40;;;;;;;26.72;36.44;100466.34;1777030;79;21015;-75
2022/06/25 09:19:40;;;;;;;6.00;2.70;;;;;;;26.67;37.20;100466.65;1782867;80;21280;-76
2022/06/25 09:22:19;;;;;;;5.63;3.00;;;;;;;26.66;37.39;100473.30;1780391;79;21040;-75
2022/06/25 09:24:55;;;;;;;3.57;2.73;;;;;;;26.77;37.29;100481.09;1763495;80;21047;-75
2022/06/25 09:27:36;;;;;;;4.43;2.63;;;;;;;26.92;37.13;100477.98;1746705;81;21813;-77
2022/06/25 09:30:14;;;;;;;3.90;2.80;;;;;;;27.03;37.26;100483.61;1763644;81;21090;-75
2022/06/25 09:32:47;;;;;;;4.03;2.60;;;;;;;26.99;37.06;100484.94;1754791;81;21078;-74
2022/06/25 09:35:33;;;;;;;4.07;2.63;;;;;;;26.89;37.36;100489.11;1749858;81;21650;-75
2022/06/25 09:38:12;;;;;;;4.03;2.70;;;;;;;26.90;37.19;100476.97;1766049;81;21143;-74
2022/06/25 09:41:03;;;;;;;3.53;2.40;;;;;;;27.10;36.88;100475.48;1764316;81;21220;-74
2022/06/25 09:43:37;;;;;;;2.93;2.37;;;;;;;27.41;37.49;100460.65;1748269;81;21138;-75
2022/06/25 09:46:09;;;;;;;4.53;2.70;;;;;;;27.90;36.90;100449.23;1765299;81;21081;-76
2022/06/25 09:48:43;;;;;;;3.40;2.60;;;;;;;28.17;35.84;100466.37;1746051;81;21039;-76
2022/06/25 09:51:16;;;;;;;4.10;2.50;;;;;;;28.28;35.99;100464.48;1757371;79;20983;-74
2022/06/25 09:54:01;;;;;;;5.70;2.77;;;;;;;28.36;35.79;100459.84;1755502;79;21253;-74
2022/06/25 09:56:33;;;;;;;4.83;2.53;;;;;;;28.28;34.12;100457.03;1723382;81;20967;-75
2022/06/25 09:59:00;;;;;;;4.73;2.47;;;;;;;27.97;33.96;100465.20;1744281;81;21549;-74
2022/06/25 10:01:40;;;;;;;4.07;2.40;;;;;;;27.84;34.52;100465.27;1752367;81;21138;-74
2022/06/25 10:04:18;;;;;;;4.80;2.43;;;;;;;27.90;35.05;100467.85;1755006;81;21007;-73
2022/06/25 10:06:47;;;;;;;3.83;2.20;;;;;;;28.11;34.34;100469.25;1751861;81;21639;-73
2022/06/25 10:09:29;;;;;;;3.30;2.40;;;;;;;28.30;34.67;100460.80;1752915;80;21062;-74
2022/06/25 10:12:06;;;;;;;3.83;2.60;;;;;;;28.39;33.50;100467.32;1751684;81;21106;-74
2022/06/25 10:14:39;;;;;;;3.00;2.10;;;;;;;28.34;33.96;100467.69;1740386;82;21139;-74
2022/06/25 10:17:14;;;;;;;5.03;2.63;;;;;;;28.44;33.59;100466.42;1734769;81;21538;-74
2022/06/25 10:19:51;;;;;;;4.03;2.33;;;;;;;28.57;33.27;100465.54;1721913;80;21573;-79
2022/06/25 10:22:37;;;;;;;4.37;2.47;;;;;;;28.68;33.44;100464.23;1719058;82;21560;-83
2022/06/25 10:25:17;;;;;;;4.50;2.40;;;;;;;28.65;33.77;100461.66;1742793;80;21496;-88
2022/06/25 10:27:48;;;;;;;2.40;1.90;;;;;;;28.79;33.86;100460.17;1751248;82;21048;-83
2022/06/25 10:30:50;;;;;;;3.57;2.30;;;;;;;29.04;33.41;100455.64;1717965;82;21060;-86
2022/06/25 10:33:29;;;;;;;4.17;2.40;;;;;;;29.24;33.56;100457.50;1729826;82;21624;-84
2022/06/25 10:36:06;;;;;;;3.00;2.10;;;;;;;29.21;33.59;100465.93;1738270;80;21039;-81
2022/06/25 10:38:37;;;;;;;3.43;2.50;;;;;;;28.97;33.90;100463.83;1740019;78;20994;-80
2022/06/25 10:44:10;;;;;;;3.10;2.33;;;;;;;28.92;34.56;100464.98;1716449;81;20999;-84
2022/06/25 10:46:49;;;;;;;4.47;2.73;;;;;;;29.07;33.80;100460.96;1677501;81;21364;-87
2022/06/25 10:49:31;;;;;;;3.97;2.60;;;;;;;28.92;33.32;100462.23;1739785;81;21015;-84
2022/06/25 10:52:05;;;;;;;4.92;3.30;;;;;;;28.64;32.88;100466.17;1742430;80;21499;-85
2022/06/25 10:54:36;;;;;;;4.90;3.20;;;;;;;28.42;34.42;100466.00;1727111;80;21160;-88
2022/06/25 10:57:04;;;;;;;3.98;2.80;;;;;;;28.48;33.64;100458.98;1738450;80;21044;-87
2022/06/25 10:59:46;;;;;;;4.47;2.50;;;;;;;28.62;33.52;100458.30;1781626;80;21133;-82
2022/06/25 11:02:15;;;;;;;4.25;2.27;;;;;;;28.82;33.94;100454.69;1749156;81;28103;-85
2022/06/25 11:04:54;;;;;;;4.08;2.62;;;;;;;29.03;33.17;100454.07;1755126;81;21509;-92
2022/06/25 11:07:26;;;;;;;3.33;2.30;;;;;;;29.10;32.73;100455.48;1756248;81;21043;-88
2022/06/25 11:09:59;;;;;;;3.00;2.20;;;;;;;29.18;32.48;100457.66;1744256;81;21112;-85
2022/06/25 11:12:38;;;;;;;4.43;2.67;;;;;;;29.07;31.66;100457.63;1717724;81;21129;-86
2022/06/25 11:15:08;;;;;;;3.07;2.30;;;;;;;28.78;32.68;100465.47;1730145;81;21029;-85
2022/06/25 11:17:35;;;;;;;3.60;2.17;;;;;;;28.73;33.71;100457.80;1721477;83;21640;-83
2022/06/25 11:20:10;;;;;;;3.87;2.53;;;;;;;28.90;32.16;100440.42;1721123;82;21142;-80
2022/06/25 11:22:50;;;;;;;4.00;2.47;;;;;;;28.89;32.23;100452.57;1726089;81;21079;-81
2022/06/25 11:30:49;;;;;;;3.30;2.20;;;;;;;28.74;33.59;100451.71;1750003;81;21031;-84
2022/06/25 11:33:15;;;;;;;4.97;2.80;;;;;;;28.96;33.46;100452.63;1731994;81;21023;-81
2022/06/25 11:35:49;;;;;;;4.20;2.27;;;;;;;29.21;32.93;100452.77;1743213;81;21154;-82
2022/06/25 11:38:19;;;;;;;3.73;2.00;;;;;;;29.46;32.59;100452.88;1751810;81;21155;-82
2022/06/25 11:40:46;;;;;;;3.57;2.17;;;;;;;29.68;31.61;100449.04;1752067;81;21278;-81
2022/06/25 11:43:15;;;;;;;3.30;2.20;;;;;;;29.74;31.00;100453.55;1752631;80;21035;-83
2022/06/25 11:45:55;;;;;;;4.23;2.27;;;;;;;29.61;30.75;100449.00;1752180;81;21102;-82
2022/06/25 11:48:32;;;;;;;3.20;2.33;;;;;;;29.53;31.38;100452.11;1723321;80;21079;-81
2022/06/25 11:51:00;;;;;;;3.97;2.30;;;;;;;29.61;31.42;100450.37;1745218;80;21096;-80
2022/06/25 11:53:29;;;;;;;3.67;2.07;;;;;;;29.80;31.08;100438.23;1750309;80;21445;-85
2022/06/25 11:56:04;;;;;;;5.03;2.47;;;;;;;29.96;30.73;100435.11;1751658;80;21059;-81
2022/06/25 11:58:33;;;;;;;3.83;2.20;;;;;;;30.15;30.08;100438.08;1747342;80;21110;-83
2022/06/25 12:01:02;;;;;;;2.50;2.00;;;;;;;30.29;29.76;100441.45;1754368;81;20953;-75
2022/06/25 12:03:29;;;;;;;3.60;2.40;;;;;;;30.36;29.39;100435.33;1756369;78;21077;-84
2022/06/25 12:05:58;;;;;;;4.47;2.20;;;;;;;30.41;29.35;100431.41;1755774;78;21016;-83